Time;durP1;ratioP1;P1;durP2;ratioP2;P2;SDS_P1;SDS_P2;PMS_P1;PMS_P2;Temp;Humidity;BMP_temperature;BMP_pressure;BME280_temperature;BME280_humidity;BME280_pressure;Samples;Min_cycle;Max_cycle;Signal;HPM_P1;HPM_P2
2023/10/12 00:02:05;;;;;;;12.40;3.87;;;19.10;16.90;;;;;;5014546;28;20181;-42
2023/10/12 00:05:20;;;;;;;10.60;3.77;;;19.10;17.70;;;;;;5014657;28;20177;-43
2023/10/12 00:12:46;;;;;;;8.27;3.37;;;19.10;13.00;;;;;;5014353;28;20585;-43
2023/10/12 00:15:29;;;;;;;8.77;4.13;;;19.10;13.60;;;;;;5014586;28;20181;-41
2023/10/12 00:17:57;;;;;;;12.10;3.63;;;19.10;12.30;;;;;;5014540;28;20586;-41
2023/10/12 00:22:59;;;;;;;11.30;3.67;;;19.20;10.20;;;;;;5014241;28;20162;-42
2023/10/12 00:25:25;;;;;;;7.60;3.47;;;19.10;10.50;;;;;;5014149;28;20191;-42
2023/10/12 00:27:52;;;;;;;11.37;3.67;;;19.10;10.30;;;;;;5014000;28;20186;-44
2023/10/12 00:30:18;;;;;;;12.43;3.73;;;19.10;9.00;;;;;;5014136;28;20533;-42
2023/10/12 00:32:44;;;;;;;6.53;3.43;;;19.10;9.30;;;;;;5013109;28;20634;-42
2023/10/12 00:35:19;;;;;;;10.10;4.20;;;19.10;9.70;;;;;;5012895;28;20189;-40
2023/10/12 00:37:45;;;;;;;11.03;3.70;;;19.00;5.20;;;;;;5013919;28;20622;-43
2023/10/12 00:40:31;;;;;;;8.83;3.83;;;19.00;6.30;;;;;;5012630;28;20263;-44
2023/10/12 00:43:00;;;;;;;7.70;3.63;;;19.00;9.00;;;;;;5014171;28;20184;-43
2023/10/12 00:45:29;;;;;;;12.73;3.40;;;19.00;8.30;;;;;;5012841;28;20186;-43
2023/10/12 00:48:04;;;;;;;11.53;3.17;;;19.00;3.80;;;;;;5013846;28;20173;-42
2023/10/12 00:50:30;;;;;;;14.20;3.80;;;19.00;5.30;;;;;;5013985;28;20220;-42
2023/10/12 00:53:14;;;;;;;10.00;3.40;;;19.00;5.70;;;;;;5014004;28;20181;-44
2023/10/12 00:55:41;;;;;;;13.17;3.50;;;18.90;5.70;;;;;;5013581;28;20209;-44
2023/10/12 00:58:10;;;;;;;5.87;3.03;;;18.90;8.20;;;;;;4996201;28;20264;-45
2023/10/12 01:00:43;;;;;;;11.17;4.67;;;18.90;11.50;;;;;;5013609;28;20205;-43
2023/10/12 01:03:27;;;;;;;10.13;3.97;;;18.90;12.10;;;;;;5012323;28;20549;-42
2023/10/12 01:08:47;;;;;;;9.70;3.33;;;18.80;16.90;;;;;;5013444;28;20293;-40
2023/10/12 01:11:26;;;;;;;6.60;3.37;;;18.80;18.60;;;;;;5013481;28;20196;-41
2023/10/12 01:16:28;;;;;;;10.70;4.10;;;18.70;24.00;;;;;;5013553;28;20298;-45
2023/10/12 01:19:21;;;;;;;12.87;3.73;;;18.70;28.00;;;;;;5013769;28;20170;-43
2023/10/12 01:21:43;;;;;;;9.80;3.87;;;18.60;36.60;;;;;;5013045;28;20231;-42
2023/10/12 01:24:12;;;;;;;7.93;3.80;;;18.50;41.40;;;;;;5013449;28;20590;-45
2023/10/12 01:26:48;;;;;;;13.90;4.20;;;18.40;44.20;;;;;;4996101;28;20192;-44
2023/10/12 01:29:20;;;;;;;6.03;3.83;;;18.30;48.70;;;;;;5013572;28;20224;-42
2023/10/12 01:34:38;;;;;;;8.60;3.87;;;18.10;52.10;;;;;;5013874;28;20173;-42
2023/10/12 01:37:26;;;;;;;9.97;3.60;;;18.10;56.00;;;;;;5012070;28;20177;-44
2023/10/12 01:40:44;;;;;;;6.93;3.77;;;18.00;57.90;;;;;;5013472;28;20665;-44
2023/10/12 01:45:19;;;;;;;8.03;4.30;;;17.90;59.90;;;;;;5013314;28;20542;-44
2023/10/12 01:47:54;;;;;;;12.80;4.07;;;17.90;60.40;;;;;;5011979;28;20243;-43
2023/10/12 01:50:20;;;;;;;15.13;4.03;;;17.90;60.60;;;;;;5015225;28;20311;-43
2023/10/12 01:52:47;;;;;;;13.80;3.67;;;17.80;62.90;;;;;;5015636;28;20268;-44
2023/10/12 01:55:26;;;;;;;10.27;3.87;;;17.80;62.50;;;;;;5017166;28;20185;-43
2023/10/12 01:57:54;;;;;;;8.07;3.90;;;17.80;68.00;;;;;;5016801;28;20231;-44
2023/10/12 02:00:42;;;;;;;9.03;3.53;;;17.70;70.20;;;;;;5015452;28;20206;-44
2023/10/12 02:03:15;;;;;;;13.00;4.33;;;17.70;69.70;;;;;;5015289;28;20201;-44
2023/10/12 02:05:50;;;;;;;9.40;4.00;;;17.60;76.40;;;;;;5016921;28;20636;-42
2023/10/12 02:08:19;;;;;;;6.90;3.83;;;17.60;79.40;;;;;;5016554;28;20193;-42
2023/10/12 02:10:57;;;;;;;9.43;3.93;;;17.60;83.20;;;;;;5016530;28;20221;-43
2023/10/12 02:13:24;;;;;;;11.13;4.10;;;17.50;87.80;;;;;;5016661;28;20166;-44
2023/10/12 02:15:50;;;;;;;15.77;4.77;;;17.40;91.50;;;;;;5016673;28;20178;-42
2023/10/12 02:18:18;;;;;;;7.37;4.67;;;17.30;93.90;;;;;;5015261;28;20181;-43
2023/10/12 02:34:29;;;;;;;11.77;5.23;;;17.00;99.90;;;;;;5016304;28;20600;-43
2023/10/12 02:39:41;;;;;;;9.70;4.40;;;16.90;99.90;;;;;;5016118;28;20198;-43
2023/10/12 02:44:57;;;;;;;9.60;4.93;;;16.80;99.90;;;;;;5016062;28;20186;-42
2023/10/12 02:47:24;;;;;;;13.73;4.90;;;16.80;99.90;;;;;;5014874;28;20265;-44
2023/10/12 02:50:00;;;;;;;8.10;4.57;;;16.70;99.90;;;;;;5015741;28;20235;-41
2023/10/12 02:52:27;;;;;;;10.97;4.60;;;16.70;99.90;;;;;;5016352;28;20165;-39
2023/10/12 02:54:55;;;;;;;10.63;5.00;;;16.60;99.90;;;;;;5015857;28;20169;-43
2023/10/12 02:57:31;;;;;;;10.07;4.63;;;16.60;99.90;;;;;;5015792;28;20686;-45
2023/10/12 02:59:59;;;;;;;7.17;4.63;;;16.50;99.90;;;;;;5014812;28;20201;-42
2023/10/12 03:02:32;;;;;;;6.30;4.43;;;16.40;99.90;;;;;;5014201;28;20185;-44
2023/10/12 03:05:04;;;;;;;9.67;5.07;;;16.50;99.90;;;;;;5014715;28;20638;-42
2023/10/12 03:07:31;;;;;;;12.90;4.63;;;16.40;99.90;;;;;;5015782;28;20167;-44
2023/10/12 03:10:00;;;;;;;8.40;4.73;;;16.40;99.90;;;;;;5015745;28;20411;-43
2023/10/12 03:12:26;;;;;;;11.60;5.40;;;16.40;99.90;;;;;;5014274;28;20173;-43
2023/10/12 03:14:52;;;;;;;13.30;5.93;;;16.30;99.90;;;;;;5015864;28;20209;-43
2023/10/12 03:17:19;;;;;;;6.80;5.40;;;16.30;99.90;;;;;;5015490;28;20645;-45
2023/10/12 03:19:55;;;;;;;9.77;5.10;;;16.30;99.90;;;;;;5015675;28;20267;-43
2023/10/12 03:22:34;;;;;;;13.50;5.00;;;16.20;99.90;;;;;;5015612;28;20162;-43
2023/10/12 03:25:19;;;;;;;10.13;4.97;;;16.20;99.90;;;;;;4999076;28;20182;-46
2023/10/12 03:43:28;;;;;;;9.60;6.30;;;16.00;99.90;;;;;;5012080;28;20221;-42
2023/10/12 03:51:41;;;;;;;9.50;6.83;;;15.90;99.90;;;;;;5012437;28;20237;-46
2023/10/12 03:54:09;;;;;;;11.90;6.80;;;15.90;99.90;;;;;;5012703;28;20197;-46
2023/10/12 03:56:41;;;;;;;11.53;6.30;;;15.90;99.90;;;;;;4997198;28;20265;-43
2023/10/12 03:59:07;;;;;;;11.97;5.73;;;15.90;99.90;;;;;;4981484;28;20193;-42
2023/10/12 04:01:41;;;;;;;11.07;6.63;;;15.90;99.90;;;;;;5014565;28;20197;-43
2023/10/12 04:04:53;;;;;;;8.90;5.50;;;15.80;99.90;;;;;;4997089;28;20197;-43
2023/10/12 04:09:31;;;;;;;13.43;5.93;;;15.80;99.90;;;;;;5014891;28;20673;-42
2023/10/12 04:14:55;;;;;;;12.43;5.90;;;15.70;99.90;;;;;;4998710;28;20554;-47
2023/10/12 04:26:22;;;;;;;13.27;6.03;;;15.60;99.90;;;;;;4993637;28;20194;-41
2023/10/12 04:28:23;;;;;;;14.80;6.23;;;15.60;99.90;;;;;;4994109;28;20201;-43
2023/10/12 04:33:26;;;;;;;10.83;6.07;;;15.60;99.90;;;;;;4994774;28;20229;-42
2023/10/12 04:36:09;;;;;;;10.03;5.20;;;15.60;99.90;;;;;;4993186;28;20174;-45
2023/10/12 04:43:39;;;;;;;12.03;5.73;;;15.60;99.90;;;;;;4994311;28;20202;-43
2023/10/12 04:46:47;;;;;;;14.33;5.97;;;15.60;99.90;;;;;;4994459;28;20597;-42
2023/10/12 04:51:51;;;;;;;10.23;5.90;;;15.60;99.90;;;;;;4994497;28;20159;-44
2023/10/12 04:54:25;;;;;;;10.90;5.63;;;15.60;99.90;;;;;;4994475;28;20186;-41
2023/10/12 04:57:13;;;;;;;8.80;5.83;;;15.60;99.90;;;;;;4994091;28;20174;-41
2023/10/12 04:59:49;;;;;;;10.13;5.40;;;15.70;99.90;;;;;;4994302;28;20744;-42
2023/10/12 05:02:28;;;;;;;8.13;6.03;;;15.60;99.90;;;;;;4994328;28;20261;-43
2023/10/12 05:07:27;;;;;;;12.03;5.57;;;15.60;99.90;;;;;;4994355;28;20182;-43
2023/10/12 05:09:54;;;;;;;6.73;4.63;;;15.60;99.90;;;;;;4992623;28;20213;-43
2023/10/12 05:12:25;;;;;;;9.83;5.50;;;15.60;99.90;;;;;;4993915;28;20205;-43
2023/10/12 05:15:00;;;;;;;10.70;5.67;;;15.60;99.90;;;;;;4993188;28;20605;-43
2023/10/12 05:17:30;;;;;;;15.53;6.00;;;15.60;99.90;;;;;;4992581;28;20197;-43
2023/10/12 05:19:56;;;;;;;12.30;5.80;;;15.60;99.90;;;;;;5009735;28;20198;-44
2023/10/12 05:22:22;;;;;;;9.93;6.03;;;15.50;99.90;;;;;;4993958;28;20735;-45
2023/10/12 05:24:49;;;;;;;10.27;5.33;;;15.60;99.90;;;;;;4996835;28;20182;-43
2023/10/12 05:27:38;;;;;;;10.73;5.93;;;15.50;99.90;;;;;;4998344;28;20677;-43
2023/10/12 05:30:19;;;;;;;10.03;5.03;;;15.50;99.90;;;;;;4997536;28;20271;-47
2023/10/12 05:32:55;;;;;;;9.90;5.53;;;15.50;99.90;;;;;;4997718;28;20190;-48
2023/10/12 05:35:49;;;;;;;13.83;5.83;;;15.50;99.90;;;;;;5023975;23;20295;-48
2023/10/12 05:38:10;;;;;;;11.80;5.63;;;15.50;99.90;;;;;;4997662;28;20217;-47
2023/10/12 05:40:42;;;;;;;12.77;6.03;;;15.50;99.90;;;;;;4996354;28;20676;-46
2023/10/12 05:43:19;;;;;;;11.00;5.40;;;15.50;99.90;;;;;;4997545;28;20166;-48
2023/10/12 05:45:46;;;;;;;12.50;5.63;;;15.50;99.90;;;;;;4997997;28;20162;-48
2023/10/12 05:48:15;;;;;;;8.97;5.23;;;15.50;99.90;;;;;;4997674;28;20186;-46
2023/10/12 05:50:42;;;;;;;9.73;5.80;;;15.50;99.90;;;;;;4996276;28;20241;-48
2023/10/12 05:53:09;;;;;;;11.57;5.50;;;15.50;99.90;;;;;;4997423;28;20630;-47
2023/10/12 05:55:36;;;;;;;16.23;6.03;;;15.40;99.90;;;;;;4997204;28;20174;-46
2023/10/12 05:58:11;;;;;;;11.73;5.60;;;15.50;99.90;;;;;;4996192;28;20185;-46
2023/10/12 06:00:47;;;;;;;9.90;5.50;;;15.40;99.90;;;;;;4997241;28;20264;-47
2023/10/12 06:03:16;;;;;;;7.97;5.63;;;15.50;99.90;;;;;;4996158;28;20202;-47
2023/10/12 06:05:46;;;;;;;12.13;6.27;;;15.50;99.90;;;;;;4997305;28;20269;-48
2023/10/12 06:08:12;;;;;;;10.67;5.90;;;15.40;99.90;;;;;;4996199;28;20559;-45
2023/10/12 06:10:41;;;;;;;9.97;5.77;;;15.40;99.90;;;;;;4997151;28;20698;-43
2023/10/12 06:13:14;;;;;;;11.90;6.10;;;15.40;99.90;;;;;;4997421;28;20174;-44
2023/10/12 06:15:40;;;;;;;12.07;6.23;;;15.40;99.90;;;;;;4997091;28;20276;-43
2023/10/12 06:18:12;;;;;;;11.67;6.00;;;15.40;99.90;;;;;;4997390;28;20209;-44
2023/10/12 06:20:42;;;;;;;11.83;6.17;;;15.40;99.90;;;;;;4996837;28;20670;-42
2023/10/12 06:23:14;;;;;;;8.90;6.17;;;15.40;99.90;;;;;;4995563;28;20182;-44
2023/10/12 06:25:43;;;;;;;14.23;6.03;;;15.40;99.90;;;;;;4996848;28;20198;-42
2023/10/12 06:28:19;;;;;;;11.53;5.93;;;15.40;99.90;;;;;;4996798;28;20198;-44
2023/10/12 06:30:46;;;;;;;9.20;5.83;;;15.40;99.90;;;;;;4996477;28;20272;-44
2023/10/12 06:33:14;;;;;;;11.20;5.90;;;15.40;99.90;;;;;;4996904;28;20546;-43
2023/10/12 06:36:01;;;;;;;15.53;5.77;;;15.30;99.90;;;;;;4995095;28;20213;-43
2023/10/12 06:39:39;;;;;;;9.10;5.97;;;15.30;99.90;;;;;;4996930;28;20171;-44
2023/10/12 06:44:50;;;;;;;12.60;5.93;;;15.40;99.90;;;;;;4997181;28;20176;-42
2023/10/12 06:46:49;;;;;;;10.50;5.83;;;15.40;99.90;;;;;;4991015;28;20190;-44
2023/10/12 06:49:51;;;;;;;9.87;5.80;;;15.40;99.90;;;;;;4995180;28;20206;-44
2023/10/12 06:52:10;;;;;;;14.37;6.17;;;15.40;99.90;;;;;;4995331;28;20186;-45
2023/10/12 06:59:52;;;;;;;13.93;6.20;;;15.50;99.90;;;;;;4996264;28;20544;-42
2023/10/12 07:02:25;;;;;;;15.17;6.33;;;15.50;99.90;;;;;;4994990;28;20186;-44
2023/10/12 07:04:58;;;;;;;13.40;6.30;;;15.50;99.90;;;;;;4996517;28;20166;-42
2023/10/12 07:07:43;;;;;;;10.60;6.23;;;15.50;99.90;;;;;;4996751;28;20290;-44
2023/10/12 07:12:45;;;;;;;8.40;6.00;;;15.50;99.90;;;;;;4996032;28;20583;-44
2023/10/12 07:15:26;;;;;;;12.53;6.50;;;15.50;99.90;;;;;;4996091;28;20173;-42
2023/10/12 07:17:55;;;;;;;12.43;5.93;;;15.60;99.90;;;;;;4995971;28;20161;-44
2023/10/12 07:22:57;;;;;;;10.50;5.83;;;15.60;99.90;;;;;;4996188;28;20208;-41
2023/10/12 07:25:27;;;;;;;10.23;5.80;;;15.60;99.90;;;;;;4995887;28;20182;-42
2023/10/12 07:27:59;;;;;;;9.77;5.97;;;15.60;99.90;;;;;;4994716;28;20261;-44
2023/10/12 07:30:36;;;;;;;10.03;5.93;;;15.60;99.90;;;;;;4994324;28;20220;-45
2023/10/12 07:33:17;;;;;;;11.93;6.53;;;15.70;99.90;;;;;;4995987;28;20190;-42
2023/10/12 07:35:53;;;;;;;10.73;6.07;;;15.70;99.90;;;;;;4995507;28;20193;-42
2023/10/12 07:38:34;;;;;;;11.17;5.77;;;15.70;99.90;;;;;;4995560;28;20241;-44
2023/10/12 07:41:01;;;;;;;11.47;6.40;;;15.80;99.90;;;;;;4995716;28;20214;-43
2023/10/12 07:43:31;;;;;;;10.83;5.87;;;15.70;99.90;;;;;;4995469;28;20178;-44
2023/10/12 07:46:12;;;;;;;16.00;5.83;;;15.80;99.90;;;;;;4994995;28;20229;-41
2023/10/12 07:51:19;;;;;;;9.43;5.50;;;15.80;99.90;;;;;;4995519;28;20680;-43
2023/10/12 07:53:57;;;;;;;13.27;6.03;;;15.90;99.90;;;;;;4993949;28;20552;-44
2023/10/12 08:06:48;;;;;;;11.13;5.83;;;15.90;99.90;;;;;;2927646;23;20587;-47
2023/10/12 08:09:33;;;;;;;9.03;5.27;;;15.90;99.90;;;;;;5013442;28;20216;-48
2023/10/12 08:12:23;;;;;;;10.70;5.57;;;15.90;99.90;;;;;;4994980;28;20190;-47
2023/10/12 08:14:46;;;;;;;13.63;6.00;;;15.90;99.90;;;;;;4994806;28;20222;-46
2023/10/12 08:17:26;;;;;;;9.80;6.23;;;16.00;99.90;;;;;;4995721;28;20232;-48
2023/10/12 08:22:36;;;;;;;14.00;6.07;;;16.00;99.90;;;;;;4994749;28;20174;-48
2023/10/12 08:25:04;;;;;;;11.23;6.13;;;16.00;99.90;;;;;;4994676;28;20190;-46
2023/10/12 08:27:52;;;;;;;9.03;5.77;;;16.10;99.90;;;;;;4995182;28;20186;-49
2023/10/12 08:30:47;;;;;;;9.57;5.47;;;16.10;99.90;;;;;;4994506;28;20702;-48
2023/10/12 08:33:14;;;;;;;12.77;5.63;;;16.10;99.90;;;;;;4995183;28;20182;-47
2023/10/12 08:39:14;;;;;;;12.30;5.97;;;16.20;99.90;;;;;;4964810;28;20306;-47
2023/10/12 08:42:19;;;;;;;10.63;5.50;;;16.20;99.90;;;;;;4995308;28;20174;-49
2023/10/12 08:44:43;;;;;;;11.33;5.70;;;16.20;99.90;;;;;;4994492;28;20193;-48
2023/10/12 08:47:09;;;;;;;8.47;5.43;;;16.30;99.90;;;;;;4995030;28;20606;-48
2023/10/12 08:52:43;;;;;;;12.03;5.43;;;16.30;99.90;;;;;;4978491;28;20195;-47
2023/10/12 08:55:14;;;;;;;9.80;5.37;;;16.40;99.90;;;;;;4995033;28;20159;-46
2023/10/12 08:57:56;;;;;;;10.90;5.83;;;16.40;99.90;;;;;;4994307;28;20221;-48
2023/10/12 09:05:51;;;;;;;12.63;5.73;;;16.50;99.90;;;;;;4994119;28;20704;-48
2023/10/12 09:13:23;;;;;;;11.57;5.60;;;16.70;99.90;;;;;;4996121;28;20161;-47
2023/10/12 09:15:58;;;;;;;10.77;5.83;;;16.80;99.90;;;;;;4993857;28;20166;-47
2023/10/12 09:18:44;;;;;;;10.67;5.63;;;16.90;99.90;;;;;;4993770;28;20662;-46
2023/10/12 09:21:38;;;;;;;11.40;5.87;;;17.00;99.90;;;;;;4992640;28;20202;-48
2023/10/12 09:24:21;;;;;;;11.27;6.17;;;17.10;99.90;;;;;;4992598;28;20619;-46
2023/10/12 09:27:02;;;;;;;12.57;6.50;;;17.20;99.90;;;;;;4995075;28;20155;-48
2023/10/12 09:29:41;;;;;;;10.17;5.53;;;17.30;99.90;;;;;;4994366;28;20272;-46
2023/10/12 09:32:19;;;;;;;11.97;6.10;;;17.40;99.90;;;;;;4993835;28;20177;-49
2023/10/12 09:37:28;;;;;;;10.73;6.50;;;17.60;99.90;;;;;;4994003;28;20283;-47
2023/10/12 09:42:54;;;;;;;15.07;6.30;;;17.70;99.90;;;;;;3214625;26;20221;-43
2023/10/12 09:48:05;;;;;;;9.00;5.73;;;17.80;99.90;;;;;;3676100;23;20233;-47
2023/10/12 09:50:35;;;;;;;11.33;5.63;;;17.90;99.90;;;;;;5011933;28;20243;-48
2023/10/12 09:53:21;;;;;;;10.00;5.97;;;18.00;99.90;;;;;;5012079;28;20256;-48
2023/10/12 09:59:13;;;;;;;9.20;4.80;;;18.10;99.90;;;;;;4991016;28;20182;-47
2023/10/12 11:01:12;;;;;;;9.60;5.47;;;19.40;99.90;;;;;;1809062;23;20229;-48
2023/10/12 11:03:39;;;;;;;9.07;4.50;;;19.50;99.90;;;;;;5014957;28;20704;-46
2023/10/12 11:06:21;;;;;;;10.10;5.33;;;19.50;99.90;;;;;;5010040;28;20197;-47
2023/10/12 11:09:06;;;;;;;11.33;4.93;;;19.60;99.90;;;;;;5016009;28;20159;-43
2023/10/12 11:11:37;;;;;;;16.23;5.37;;;19.60;99.90;;;;;;5014858;28;20287;-43
2023/10/12 11:14:10;;;;;;;7.90;4.90;;;19.70;99.90;;;;;;5015674;28;20209;-43
2023/10/12 11:20:26;;;;;;;9.70;4.20;;;19.70;99.90;;;;;;5015461;28;20204;-44
2023/10/12 11:23:07;;;;;;;7.97;4.43;;;19.80;99.90;;;;;;5013287;28;20683;-44
2023/10/12 11:25:42;;;;;;;11.60;4.33;;;19.80;99.90;;;;;;5012154;28;20186;-43
2023/10/12 11:28:23;;;;;;;7.90;4.00;;;19.80;99.90;;;;;;5015381;28;20154;-44
2023/10/12 11:31:32;;;;;;;6.47;4.00;;;19.90;99.10;;;;;;5013898;28;20587;-44
2023/10/12 11:33:59;;;;;;;8.97;4.37;;;19.90;99.30;;;;;;5015299;28;20178;-48
2023/10/12 11:36:26;;;;;;;8.93;4.43;;;19.90;96.70;;;;;;5015387;28;20239;-49
2023/10/12 11:39:21;;;;;;;6.73;4.20;;;19.90;95.90;;;;;;5015374;28;20561;-49
2023/10/12 11:42:07;;;;;;;6.27;3.70;;;19.90;95.00;;;;;;5015352;28;20648;-50
2023/10/12 11:44:51;;;;;;;13.47;4.37;;;20.00;94.70;;;;;;5014062;28;20188;-48
2023/10/12 11:47:37;;;;;;;7.00;3.63;;;19.90;93.20;;;;;;5013013;28;20703;-49
2023/10/12 11:50:09;;;;;;;8.90;3.97;;;20.00;94.70;;;;;;5014920;28;20212;-48
2023/10/12 11:52:40;;;;;;;6.87;3.90;;;20.00;93.90;;;;;;4996347;28;20264;-47
2023/10/12 11:55:31;;;;;;;10.30;3.97;;;19.90;93.90;;;;;;5015103;28;20205;-48
2023/10/12 11:58:13;;;;;;;6.97;3.67;;;19.80;93.10;;;;;;5014149;28;20685;-48
2023/10/12 12:00:49;;;;;;;11.17;4.23;;;19.80;93.50;;;;;;5014593;28;20626;-47
2023/10/12 12:04:15;;;;;;;10.00;4.33;;;19.70;96.80;;;;;;5015069;28;20192;-48
2023/10/12 12:07:13;;;;;;;9.60;3.80;;;19.70;98.30;;;;;;5014726;28;20193;-50
2023/10/12 12:09:40;;;;;;;8.50;4.13;;;19.60;99.90;;;;;;5014807;28;20339;-49
2023/10/12 12:12:16;;;;;;;8.20;3.93;;;19.60;99.90;;;;;;5014437;28;20170;-48
2023/10/12 12:14:48;;;;;;;7.50;4.17;;;19.60;99.90;;;;;;5014146;28;20265;-47
2023/10/12 12:17:17;;;;;;;8.17;4.23;;;19.60;99.90;;;;;;5014438;28;20181;-48
2023/10/12 12:19:43;;;;;;;7.47;3.90;;;19.50;99.90;;;;;;5014333;28;20197;-48
2023/10/12 12:23:03;;;;;;;11.37;4.47;;;19.40;99.90;;;;;;5014508;28;20181;-48
2023/10/12 12:25:32;;;;;;;7.77;4.20;;;19.40;99.90;;;;;;5014833;28;20189;-46
2023/10/12 12:28:01;;;;;;;11.00;4.80;;;19.20;99.90;;;;;;5014214;28;20178;-45
2023/10/12 12:30:35;;;;;;;7.53;4.30;;;19.10;99.90;;;;;;5012470;28;20271;-47
2023/10/12 12:33:03;;;;;;;9.23;4.50;;;19.00;99.90;;;;;;5001629;28;20185;-47
2023/10/12 12:35:32;;;;;;;12.90;4.10;;;18.90;99.90;;;;;;5012264;28;20193;-47
2023/10/12 12:38:05;;;;;;;10.37;4.30;;;18.90;99.90;;;;;;5014869;28;20200;-48
2023/10/12 12:40:38;;;;;;;7.90;4.23;;;18.90;99.90;;;;;;5012786;28;20212;-47
2023/10/12 12:43:08;;;;;;;10.07;4.63;;;18.90;99.90;;;;;;5014197;28;20253;-48
2023/10/12 12:45:35;;;;;;;8.83;4.33;;;18.90;99.90;;;;;;5013980;28;20205;-46
2023/10/12 12:48:04;;;;;;;9.37;4.50;;;18.80;99.90;;;;;;5013193;28;20209;-47
2023/10/12 12:50:31;;;;;;;10.33;4.43;;;18.80;99.90;;;;;;5014246;28;20209;-47
2023/10/12 12:52:57;;;;;;;12.10;4.90;;;18.80;99.90;;;;;;5012654;28;20210;-46
2023/10/12 12:59:10;;;;;;;8.47;5.13;;;18.80;99.90;;;;;;5023430;23;20141;-44
2023/10/12 13:01:39;;;;;;;10.50;4.87;;;18.80;99.90;;;;;;4993334;28;20616;-45
2023/10/12 13:04:04;;;;;;;17.00;4.63;;;18.80;99.90;;;;;;5009004;28;20189;-43
2023/10/12 13:06:39;;;;;;;11.17;5.10;;;18.80;99.90;;;;;;4994321;28;20186;-45
2023/10/12 13:09:26;;;;;;;8.23;5.07;;;18.80;99.90;;;;;;4994132;28;20169;-43
2023/10/12 13:11:55;;;;;;;11.43;4.20;;;18.90;99.90;;;;;;4994799;28;20201;-43
2023/10/12 13:14:21;;;;;;;14.03;4.73;;;18.80;99.90;;;;;;4992907;28;20186;-44
2023/10/12 13:16:50;;;;;;;9.93;4.23;;;18.80;99.90;;;;;;4994312;28;20174;-44
2023/10/12 13:22:47;;;;;;;10.07;4.10;;;18.70;99.90;;;;;;4994100;28;20162;-42
2023/10/12 13:26:06;;;;;;;7.37;3.77;;;18.70;99.90;;;;;;4994321;28;20215;-44
2023/10/12 13:28:37;;;;;;;9.63;4.20;;;18.50;99.90;;;;;;4994588;28;20224;-44
2023/10/12 13:31:06;;;;;;;6.80;4.47;;;18.50;99.90;;;;;;4994902;28;20231;-44
2023/10/12 13:33:36;;;;;;;8.37;4.00;;;18.40;99.90;;;;;;4994057;28;20519;-44
2023/10/12 13:36:08;;;;;;;7.50;3.80;;;18.20;99.90;;;;;;4994137;28;20626;-43
2023/10/12 13:38:37;;;;;;;6.43;4.07;;;18.20;99.90;;;;;;5009278;28;20562;-42
2023/10/12 13:41:06;;;;;;;5.23;3.53;;;18.20;99.90;;;;;;4992710;28;20202;-42
2023/10/12 13:43:34;;;;;;;6.90;3.87;;;18.20;99.90;;;;;;4993999;28;20182;-44
2023/10/12 13:46:11;;;;;;;8.77;4.40;;;18.20;99.90;;;;;;4996752;28;20178;-44
2023/10/12 13:48:38;;;;;;;8.77;4.07;;;18.20;99.90;;;;;;4997807;28;20213;-44
2023/10/12 13:51:28;;;;;;;8.80;4.43;;;18.20;99.90;;;;;;4998541;28;20241;-45
2023/10/12 13:54:14;;;;;;;7.67;3.80;;;18.10;99.90;;;;;;4996474;28;20206;-43
2023/10/12 13:56:46;;;;;;;6.53;3.63;;;18.10;99.90;;;;;;4997919;28;20589;-43
2023/10/12 13:59:16;;;;;;;9.90;4.10;;;18.10;99.90;;;;;;5012234;28;20210;-46
2023/10/12 14:01:48;;;;;;;5.73;3.47;;;18.10;99.90;;;;;;5012352;28;20194;-44
2023/10/12 14:04:33;;;;;;;9.37;3.77;;;18.10;99.90;;;;;;4997726;28;20159;-44
2023/10/12 14:07:03;;;;;;;11.57;3.93;;;18.10;99.90;;;;;;4996503;28;20257;-45
2023/10/12 14:09:32;;;;;;;7.37;3.93;;;18.20;99.90;;;;;;4996258;28;20190;-45
2023/10/12 14:12:53;;;;;;;7.80;4.03;;;18.20;99.90;;;;;;4996565;28;20182;-44
2023/10/12 14:15:29;;;;;;;6.77;4.27;;;18.20;99.90;;;;;;4997816;28;20208;-42
2023/10/12 14:17:55;;;;;;;7.37;4.47;;;18.30;99.90;;;;;;4997974;28;20181;-43
2023/10/12 14:20:26;;;;;;;9.73;4.43;;;18.30;99.90;;;;;;5012066;28;20202;-42
2023/10/12 14:23:06;;;;;;;6.33;4.23;;;18.40;99.90;;;;;;4997183;28;20197;-44
2023/10/12 14:25:45;;;;;;;7.33;4.23;;;18.40;99.90;;;;;;4994879;28;20277;-42
2023/10/12 14:28:16;;;;;;;9.77;4.37;;;18.40;99.90;;;;;;4997302;28;20165;-44
2023/10/12 14:30:47;;;;;;;8.63;4.33;;;18.40;99.90;;;;;;4997082;28;20221;-44
2023/10/12 14:33:15;;;;;;;7.13;3.70;;;18.40;99.90;;;;;;4996048;28;20182;-43
2023/10/12 14:35:43;;;;;;;10.80;4.30;;;18.40;99.90;;;;;;4996718;28;20190;-44
2023/10/12 14:38:14;;;;;;;7.00;3.87;;;18.40;99.90;;;;;;4997004;28;20229;-44
2023/10/12 14:40:46;;;;;;;8.67;4.00;;;18.40;99.90;;;;;;4996643;28;20708;-42
2023/10/12 14:43:21;;;;;;;10.70;4.33;;;18.40;99.90;;;;;;4996758;28;20182;-43
2023/10/12 14:45:55;;;;;;;10.33;4.67;;;18.40;99.90;;;;;;4995905;28;20197;-44
2023/10/12 14:48:26;;;;;;;7.53;4.30;;;18.30;99.90;;;;;;5011748;28;20366;-43
2023/10/12 14:51:12;;;;;;;9.70;4.07;;;18.30;99.90;;;;;;4996828;28;20284;-42
2023/10/12 14:53:44;;;;;;;7.70;4.47;;;18.30;99.90;;;;;;4996707;28;20190;-44
2023/10/12 14:56:15;;;;;;;11.00;4.30;;;18.30;99.90;;;;;;4996609;28;20155;-43
2023/10/12 14:58:43;;;;;;;9.80;4.57;;;18.20;99.90;;;;;;4995946;28;20279;-45
2023/10/12 15:01:13;;;;;;;13.83;4.90;;;18.20;99.90;;;;;;4996537;28;20202;-44
2023/10/12 15:03:45;;;;;;;8.03;4.77;;;18.20;99.90;;;;;;4995208;28;20273;-42
2023/10/12 15:06:13;;;;;;;12.00;4.97;;;18.20;99.90;;;;;;4997040;28;20198;-45
2023/10/12 15:08:40;;;;;;;12.83;5.60;;;18.20;99.90;;;;;;4996506;28;20209;-43
2023/10/12 15:11:10;;;;;;;9.27;4.30;;;18.30;99.90;;;;;;5012604;28;20265;-43
2023/10/12 15:13:37;;;;;;;10.90;5.30;;;18.20;99.90;;;;;;5015606;28;20180;-42
2023/10/12 15:16:15;;;;;;;11.97;4.57;;;18.20;99.90;;;;;;5014838;28;20182;-43
2023/10/12 15:18:42;;;;;;;12.27;4.67;;;18.20;99.90;;;;;;5016214;28;20175;-43
2023/10/12 15:21:10;;;;;;;10.47;4.77;;;18.10;99.90;;;;;;5001511;28;20218;-42
2023/10/12 15:23:40;;;;;;;10.27;4.50;;;18.10;99.90;;;;;;5001484;28;20197;-44
2023/10/12 15:26:06;;;;;;;12.10;4.67;;;18.10;99.90;;;;;;5000670;28;20185;-44
2023/10/12 15:28:36;;;;;;;9.40;4.50;;;18.00;99.90;;;;;;5012801;28;20693;-42
2023/10/12 15:31:06;;;;;;;8.10;4.67;;;18.00;99.90;;;;;;4994929;28;20228;-44
2023/10/12 15:33:32;;;;;;;18.17;4.40;;;18.00;99.90;;;;;;5000145;28;20190;-45
2023/10/12 15:35:58;;;;;;;7.87;4.40;;;17.90;99.90;;;;;;4995799;28;20253;-44
2023/10/12 15:38:33;;;;;;;9.33;4.23;;;17.80;99.90;;;;;;4996411;28;20698;-42
2023/10/12 15:41:15;;;;;;;14.73;4.93;;;17.80;99.90;;;;;;4994522;28;20229;-42
2023/10/12 15:43:44;;;;;;;10.03;4.63;;;17.80;99.90;;;;;;4995745;28;20660;-42
2023/10/12 15:46:11;;;;;;;12.23;5.00;;;17.70;99.90;;;;;;4995476;28;20253;-42
2023/10/12 15:48:40;;;;;;;9.77;5.03;;;17.70;99.90;;;;;;4995604;28;20286;-43
2023/10/12 15:51:28;;;;;;;12.70;4.60;;;17.70;99.90;;;;;;4995138;28;20206;-42
2023/10/12 15:53:57;;;;;;;7.20;4.47;;;17.60;99.90;;;;;;4984005;28;20536;-42
2023/10/12 15:56:24;;;;;;;11.67;5.17;;;17.60;99.90;;;;;;4989291;28;20261;-42
2023/10/12 15:58:52;;;;;;;9.47;4.70;;;17.60;99.90;;;;;;4994036;28;20277;-44
2023/10/12 16:01:17;;;;;;;11.93;5.20;;;17.60;99.90;;;;;;4994986;28;20226;-44
2023/10/12 16:04:09;;;;;;;9.47;5.13;;;17.60;99.90;;;;;;4977915;28;20542;-43
2023/10/12 16:06:36;;;;;;;10.63;5.30;;;17.50;99.90;;;;;;4995373;28;20190;-44
2023/10/12 16:09:12;;;;;;;12.77;4.97;;;17.50;99.90;;;;;;4993644;28;20194;-44
2023/10/12 16:11:44;;;;;;;11.47;5.73;;;17.50;99.90;;;;;;4999013;28;20677;-43
2023/10/12 16:14:16;;;;;;;10.10;5.50;;;17.40;99.90;;;;;;4995255;28;20202;-45
2023/10/12 16:16:50;;;;;;;10.73;5.27;;;17.40;99.90;;;;;;4995269;28;20173;-45
2023/10/12 16:19:18;;;;;;;10.83;5.57;;;17.30;99.90;;;;;;5008607;28;20189;-45
2023/10/12 16:21:44;;;;;;;15.30;5.73;;;17.30;99.90;;;;;;4994903;28;20175;-44
2023/10/12 16:24:11;;;;;;;9.00;4.90;;;17.20;99.90;;;;;;5009398;28;20192;-44
2023/10/12 16:26:59;;;;;;;12.20;6.10;;;17.20;99.90;;;;;;4994872;28;20186;-44
2023/10/12 16:29:33;;;;;;;11.13;5.17;;;17.20;99.90;;;;;;4994583;28;20741;-44
2023/10/12 16:32:03;;;;;;;9.20;6.10;;;17.20;99.90;;;;;;4993536;28;20177;-44
2023/10/12 16:34:31;;;;;;;15.00;6.13;;;17.20;99.90;;;;;;4994529;28;20642;-45
2023/10/12 16:37:12;;;;;;;15.83;6.40;;;17.20;99.90;;;;;;4995211;28;20241;-43
2023/10/12 16:39:41;;;;;;;15.13;6.70;;;17.10;99.90;;;;;;4993247;28;20294;-43
2023/10/12 16:42:10;;;;;;;12.73;6.70;;;17.10;99.90;;;;;;4994577;28;20236;-44
2023/10/12 16:59:12;;;;;;;21.13;7.00;;;16.80;99.90;;;;;;5037973;23;20237;-89
2023/10/12 17:01:37;;;;;;;15.10;5.47;;;17.10;99.90;;;;;;5019268;28;20220;-87
2023/10/12 17:04:28;;;;;;;16.07;5.73;;;16.80;99.90;;;;;;5018203;28;20182;-87